Time;durP1;ratioP1;P1;durP2;ratioP2;P2;SDS_P1;SDS_P2;PMS_P1;PMS_P2;Temp;Humidity;BMP_temperature;BMP_pressure;BME280_temperature;BME280_humidity;BME280_pressure;Samples;Min_cycle;Max_cycle;Signal;HPM_P1;HPM_P2
2021/11/14 00:02:05;;;;;;;;;2.50;2.50;;;;;20.67;43.20;101249.28;5057858;28;45361;-48
2021/11/14 00:04:31;;;;;;;;;2.00;2.00;;;;;20.65;42.55;101255.56;5040117;28;45339;-48
2021/11/14 00:06:56;;;;;;;;;5.00;3.00;;;;;20.69;42.82;101268.50;5057364;28;46342;-48
2021/11/14 00:09:21;;;;;;;;;3.00;3.00;;;;;20.68;42.55;101266.78;5057461;28;45402;-51
2021/11/14 00:11:47;;;;;;;;;3.00;2.50;;;;;20.66;42.76;101267.78;5057541;28;45249;-47
2021/11/14 00:14:12;;;;;;;;;2.50;2.50;;;;;20.61;42.52;101262.75;5039659;28;45473;-49
2021/11/14 00:16:38;;;;;;;;;3.50;2.75;;;;;20.61;42.87;101259.28;5057195;28;45492;-50
2021/11/14 00:19:04;;;;;;;;;4.25;3.00;;;;;20.62;42.65;101275.00;5057667;28;45363;-48
2021/11/14 00:21:31;;;;;;;;;3.00;3.00;;;;;20.64;42.61;101272.28;5057396;28;45404;-49
2021/11/14 00:23:57;;;;;;;;;2.50;2.50;;;;;20.63;43.19;101262.66;5057509;28;45335;-48
2021/11/14 00:26:22;;;;;;;;;5.00;3.00;;;;;20.62;42.81;101260.97;5057121;28;45765;-53
2021/11/14 00:28:48;;;;;;;;;2.00;2.00;;;;;20.58;43.23;101255.00;5057088;28;45335;-50
2021/11/14 00:31:17;;;;;;;;;3.25;2.50;;;;;20.63;42.60;101265.31;5057347;28;45332;-52
2021/11/14 00:33:44;;;;;;;;;2.75;2.75;;;;;20.61;42.57;101265.41;5057479;28;45531;-52
2021/11/14 00:36:16;;;;;;;;;4.50;3.00;;;;;20.63;43.08;101263.53;5056938;28;46185;-48
2021/11/14 00:38:42;;;;;;;;;2.00;2.00;;;;;20.62;42.93;101274.13;5057055;28;45820;-52
2021/11/14 00:41:08;;;;;;;;;2.75;2.75;;;;;20.59;42.76;101267.25;5057284;28;45313;-53
2021/11/14 00:43:34;;;;;;;;;4.00;3.00;;;;;20.60;42.83;101270.75;5057685;28;45232;-53
2021/11/14 00:46:01;;;;;;;;;1.50;1.50;;;;;20.57;42.98;101263.81;5057099;28;45698;-49
2021/11/14 00:48:27;;;;;;;;;2.00;2.00;;;;;20.55;42.85;101255.16;5057098;28;45875;-50
2021/11/14 00:50:53;;;;;;;;;2.50;2.50;;;;;20.55;42.97;101265.69;5057186;28;45301;-50
2021/11/14 00:53:18;;;;;;;;;2.00;2.00;;;;;20.53;43.26;101268.38;5057188;28;45555;-51
2021/11/14 00:55:45;;;;;;;;;2.00;2.00;;;;;20.53;42.98;101265.75;5056825;28;46191;-48
2021/11/14 00:58:11;;;;;;;;;2.75;2.75;;;;;20.52;42.93;101264.06;5056826;28;45376;-52
2021/11/14 01:00:37;;;;;;;;;2.00;2.00;;;;;20.49;42.91;101263.34;5056548;28;45321;-52
2021/11/14 01:03:04;;;;;;;;;4.50;3.25;;;;;20.50;43.33;101258.03;5057466;28;45544;-50
2021/11/14 01:05:31;;;;;;;;;3.25;3.25;;;;;20.50;42.90;101263.28;5056438;28;45528;-54
2021/11/14 01:07:57;;;;;;;;;2.75;2.75;;;;;20.50;42.64;101262.44;5056677;28;45396;-53
2021/11/14 01:10:27;;;;;;;;;2.00;2.00;;;;;20.50;42.84;101262.44;5056749;28;45296;-54
2021/11/14 01:12:53;;;;;;;;;5.75;3.00;;;;;20.48;42.76;101265.16;5057053;28;45289;-54
2021/11/14 01:15:20;;;;;;;;;2.00;2.00;;;;;20.47;43.13;101263.44;5056519;28;46460;-50
2021/11/14 01:17:46;;;;;;;;;3.00;3.00;;;;;20.46;42.90;101267.00;5055112;28;45786;-54
2021/11/14 01:20:17;;;;;;;;;4.00;2.25;;;;;20.43;42.93;101255.75;5056536;28;45470;-50
2021/11/14 01:22:43;;;;;;;;;2.25;2.25;;;;;20.47;43.38;101270.47;5056852;28;45174;-53
2021/11/14 01:25:12;;;;;;;;;3.00;3.00;;;;;20.46;42.90;101271.38;5056539;28;45316;-49
2021/11/14 01:27:38;;;;;;;;;2.00;2.00;;;;;20.43;42.85;101272.41;5055499;28;46241;-53
2021/11/14 01:30:11;;;;;;;;;3.50;3.00;;;;;20.45;42.76;101274.97;5056600;28;45369;-52
2021/11/14 01:32:37;;;;;;;;;2.00;2.00;;;;;20.41;43.29;101265.50;5038939;28;45257;-52
2021/11/14 01:35:03;;;;;;;;;4.00;4.00;;;;;20.44;43.34;101268.84;5056224;28;45656;-54
2021/11/14 01:37:29;;;;;;;;;3.00;3.00;;;;;20.45;42.74;101272.34;5056276;28;45345;-50
2021/11/14 01:39:54;;;;;;;;;2.00;2.00;;;;;20.39;42.74;101269.06;5056337;28;45293;-52
2021/11/14 01:42:20;;;;;;;;;2.00;2.00;;;;;20.43;43.32;101268.94;5056463;28;45903;-54
2021/11/14 01:44:45;;;;;;;;;1.50;1.50;;;;;20.43;42.93;101268.94;5056042;28;47178;-55
2021/11/14 01:47:10;;;;;;;;;3.00;3.00;;;;;20.43;43.11;101276.81;5056159;28;45353;-54
2021/11/14 01:49:36;;;;;;;;;2.75;2.75;;;;;20.41;43.23;101268.13;5056506;28;45765;-54
2021/11/14 01:52:02;;;;;;;;;3.00;3.00;;;;;20.39;43.08;101269.06;5056459;28;45169;-53
2021/11/14 01:54:29;;;;;;;;;2.00;1.25;;;;;20.34;43.23;101263.16;5055893;28;48340;-50
2021/11/14 01:56:54;;;;;;;;;2.00;2.00;;;;;20.34;42.79;101270.22;5055898;28;45289;-53
2021/11/14 01:59:19;;;;;;;;;3.50;2.00;;;;;20.38;43.47;101274.41;5056159;28;45556;-52
2021/11/14 02:01:46;;;;;;;;;3.00;3.00;;;;;20.35;43.14;101278.03;5056387;28;45411;-55
2021/11/14 02:04:11;;;;;;;;;3.25;3.25;;;;;20.35;42.97;101275.38;5055888;28;47373;-47
2021/11/14 02:06:39;;;;;;;;;3.00;3.00;;;;;20.34;43.09;101276.31;5054646;28;47072;-55
2021/11/14 02:09:05;;;;;;;;;3.00;2.00;;;;;20.33;43.15;101279.91;5056062;28;45285;-56
2021/11/14 02:11:31;;;;;;;;;2.00;2.00;;;;;20.32;42.97;101275.56;5056122;28;45793;-54
2021/11/14 02:13:56;;;;;;;;;3.50;3.50;;;;;20.33;42.83;101287.81;5059270;28;45277;-54
2021/11/14 02:16:26;;;;;;;;;3.00;1.75;;;;;20.33;43.37;101286.94;5059141;28;45218;-54
2021/11/14 02:18:52;;;;;;;;;3.00;2.75;;;;;20.31;43.02;101284.38;5059362;28;45467;-55
2021/11/14 02:21:20;;;;;;;;;3.00;3.00;;;;;20.31;43.22;101286.16;5059618;28;45529;-56
2021/11/14 02:23:46;;;;;;;;;2.50;2.50;;;;;20.30;42.84;101272.13;5041415;28;45424;-50
2021/11/14 02:26:12;;;;;;;;;2.00;2.00;;;;;20.26;43.18;101275.00;5059561;28;45257;-53
2021/11/14 02:28:37;;;;;;;;;2.50;2.00;;;;;20.29;43.58;101278.31;5059242;28;45713;-52
2021/11/14 02:31:03;;;;;;;;;3.00;2.25;;;;;20.28;43.33;101276.63;5059306;28;45301;-52
2021/11/14 02:33:30;;;;;;;;;2.00;2.00;;;;;20.28;43.32;101281.88;5058951;28;46733;-51
2021/11/14 02:36:01;;;;;;;;;2.75;2.00;;;;;20.29;43.50;101282.72;5058979;28;45433;-53
2021/11/14 02:38:28;;;;;;;;;2.25;2.25;;;;;20.28;43.57;101283.69;5059173;28;45218;-51
2021/11/14 02:40:54;;;;;;;;;3.75;3.00;;;;;20.22;43.56;101269.03;5059249;28;45391;-50
2021/11/14 02:43:20;;;;;;;;;3.50;2.00;;;;;20.28;43.12;101276.63;5058755;28;45528;-53
2021/11/14 02:45:46;;;;;;;;;3.75;3.00;;;;;20.24;43.01;101272.41;5058623;28;45812;-50
2021/11/14 02:48:12;;;;;;;;;2.75;2.00;;;;;20.27;43.37;101276.72;5059282;28;45353;-51
2021/11/14 02:50:40;;;;;;;;;0.00;0.00;;;;;20.26;43.28;101273.19;5059144;28;45297;-53
2021/11/14 02:53:06;;;;;;;;;2.00;2.00;;;;;20.23;43.20;101270.69;5058578;28;45313;-51
2021/11/14 02:55:33;;;;;;;;;2.00;2.00;;;;;20.27;43.25;101274.06;5058539;28;45821;-50
2021/11/14 02:57:59;;;;;;;;;2.75;2.75;;;;;20.23;42.95;101270.69;5058772;28;45418;-54
2021/11/14 03:00:32;;;;;;;;;2.00;2.00;;;;;20.26;43.00;101275.00;5058901;28;45405;-55
2021/11/14 03:02:59;;;;;;;;;2.00;2.00;;;;;20.25;43.39;101276.75;5058673;28;45588;-48
2021/11/14 03:05:24;;;;;;;;;1.25;1.25;;;;;20.26;43.04;101270.56;5058419;28;46277;-51
2021/11/14 03:07:51;;;;;;;;;2.25;2.00;;;;;20.24;43.53;101273.28;5058626;28;45396;-55
2021/11/14 03:10:20;;;;;;;;;2.00;2.00;;;;;20.23;43.08;101265.44;5058728;28;45411;-50
2021/11/14 03:13:14;;;;;;;;;2.00;2.00;;;;;20.22;43.15;101261.13;5058295;28;45321;-55
2021/11/14 03:15:46;;;;;;;;;1.00;1.00;;;;;20.18;43.30;101259.56;5056170;28;45237;-56
2021/11/14 03:18:12;;;;;;;;;3.75;2.00;;;;;20.22;43.29;101266.41;5058798;28;45360;-55
2021/11/14 03:20:39;;;;;;;;;1.75;1.75;;;;;20.21;43.13;101273.41;5058638;28;45635;-54
2021/11/14 03:23:05;;;;;;;;;2.50;2.50;;;;;20.18;43.56;101263.03;5058224;28;45513;-55
2021/11/14 03:25:32;;;;;;;;;2.25;2.25;;;;;20.21;43.09;101283.94;5057416;28;45318;-54
2021/11/14 03:27:58;;;;;;;;;1.25;1.25;;;;;20.18;43.25;101276.19;5058348;28;45347;-54
2021/11/14 03:30:26;;;;;;;;;2.50;1.50;;;;;20.20;43.36;101276.97;5058405;28;45301;-55
2021/11/14 03:32:52;;;;;;;;;4.25;3.00;;;;;20.20;43.21;101276.13;5057992;28;46255;-54
2021/11/14 03:35:19;;;;;;;;;2.00;1.00;;;;;20.15;43.52;101273.72;5056620;28;45375;-54
2021/11/14 03:37:45;;;;;;;;;1.00;1.00;;;;;20.19;43.17;101282.31;5058351;28;45284;-54
2021/11/14 03:40:13;;;;;;;;;2.00;2.00;;;;;20.20;43.15;101286.66;5058643;28;45550;-55
2021/11/14 03:42:38;;;;;;;;;1.00;1.00;;;;;20.19;43.43;101282.31;5057931;28;46149;-55
2021/11/14 03:45:05;;;;;;;;;2.00;2.00;;;;;20.15;43.16;101272.84;5057831;28;45253;-52
2021/11/14 03:47:31;;;;;;;;;2.00;2.00;;;;;20.19;43.54;101287.59;5057983;28;45332;-52
2021/11/14 03:49:57;;;;;;;;;2.00;2.00;;;;;20.14;43.58;101274.66;5058135;28;45527;-54
2021/11/14 03:52:22;;;;;;;;;3.00;3.00;;;;;20.19;43.56;101279.69;5057623;28;45676;-54
2021/11/14 03:54:48;;;;;;;;;2.00;2.00;;;;;20.14;43.18;101273.78;5057657;28;45391;-53
2021/11/14 03:57:13;;;;;;;;;2.50;2.50;;;;;20.18;43.46;101283.25;5058136;28;45452;-54
2021/11/14 03:59:39;;;;;;;;;2.00;2.00;;;;;20.17;43.60;101281.53;5058046;28;45301;-54
2021/11/14 04:02:04;;;;;;;;;2.25;2.25;;;;;20.17;43.18;101281.53;5057546;28;45442;-54
2021/11/14 04:04:30;;;;;;;;;1.00;1.00;;;;;20.18;43.78;101288.50;5057642;28;45268;-55
2021/11/14 04:06:55;;;;;;;;;3.75;2.25;;;;;20.16;43.46;101280.69;5057576;28;45328;-52
2021/11/14 04:09:21;;;;;;;;;3.00;2.00;;;;;20.16;43.19;101285.97;5057755;28;45383;-51
2021/11/14 04:11:46;;;;;;;;;1.00;1.00;;;;;20.12;43.53;101279.13;5057543;28;46261;-53
2021/11/14 04:14:12;;;;;;;;;4.75;3.00;;;;;20.15;43.75;101283.38;5039448;28;45376;-50
2021/11/14 04:16:37;;;;;;;;;1.50;1.50;;;;;20.16;43.36;101285.97;5057487;28;45353;-50
2021/11/14 04:19:03;;;;;;;;;3.00;2.00;;;;;20.14;43.26;101286.94;5057621;28;45289;-51
2021/11/14 04:21:29;;;;;;;;;2.25;2.25;;;;;20.15;43.71;101283.38;5057150;28;46529;-53
2021/11/14 04:23:54;;;;;;;;;1.00;1.00;;;;;20.15;43.71;101281.63;5057323;28;45466;-51
2021/11/14 04:26:20;;;;;;;;;2.00;2.00;;;;;20.14;43.26;101272.00;5057341;28;45379;-55
2021/11/14 04:28:46;;;;;;;;;0.00;0.00;;;;;20.14;43.65;101274.66;5057945;28;45443;-52
2021/11/14 04:31:11;;;;;;;;;2.00;2.00;;;;;20.13;43.79;101274.69;5057078;28;46113;-53
2021/11/14 04:33:37;;;;;;;;;1.75;1.75;;;;;20.14;43.21;101273.78;5057125;28;45393;-53
2021/11/14 04:36:03;;;;;;;;;1.25;1.25;;;;;20.10;43.60;101254.66;5056020;28;45403;-53
2021/11/14 04:38:29;;;;;;;;;3.00;2.00;;;;;20.13;43.54;101269.44;5057426;28;45779;-54
2021/11/14 04:40:54;;;;;;;;;2.00;2.00;;;;;20.13;43.36;101274.69;5056921;28;46268;-54
2021/11/14 04:43:20;;;;;;;;;2.00;2.00;;;;;20.13;43.51;101278.19;5055731;28;45366;-54
2021/11/14 04:45:48;;;;;;;;;2.50;1.50;;;;;20.13;43.71;101282.59;5057288;28;45332;-55
2021/11/14 04:48:14;;;;;;;;;1.00;1.00;;;;;20.13;43.63;101286.09;5039221;28;45411;-54
2021/11/14 04:50:41;;;;;;;;;1.00;1.00;;;;;20.13;43.66;101277.31;5056751;28;46232;-55
2021/11/14 04:53:07;;;;;;;;;2.25;2.25;;;;;20.13;43.74;101285.22;5056758;28;45791;-53
2021/11/14 04:55:34;;;;;;;;;2.00;2.00;;;;;20.11;43.42;101287.94;5056972;28;45342;-54
2021/11/14 04:58:00;;;;;;;;;1.25;1.00;;;;;20.12;43.61;101284.38;5056983;28;45446;-53
2021/11/14 05:00:29;;;;;;;;;2.00;2.00;;;;;20.12;43.26;101280.91;5056617;28;46116;-51
2021/11/14 05:02:55;;;;;;;;;3.00;2.00;;;;;20.11;43.14;101284.47;5056746;28;45415;-52
2021/11/14 05:05:21;;;;;;;;;3.00;2.00;;;;;20.11;43.61;101279.19;5056555;28;45415;-53
2021/11/14 05:07:47;;;;;;;;;1.00;1.00;;;;;20.11;43.56;101280.03;5057295;28;45262;-55
2021/11/14 05:10:13;;;;;;;;;2.25;1.00;;;;;20.11;43.22;101279.19;5056461;28;45406;-52
2021/11/14 05:12:39;;;;;;;;;2.50;2.25;;;;;20.12;43.07;101283.53;5056498;28;45348;-48
2021/11/14 05:15:06;;;;;;;;;3.00;2.00;;;;;20.11;43.54;101279.19;5056644;28;45356;-53
2021/11/14 05:17:32;;;;;;;;;1.75;1.75;;;;;20.11;43.78;101281.84;5056705;28;45600;-54
2021/11/14 05:19:57;;;;;;;;;1.00;1.00;;;;;20.08;43.69;101273.16;5056354;28;45562;-55
2021/11/14 05:22:22;;;;;;;;;2.00;2.00;;;;;20.08;43.61;101273.16;5056573;28;45219;-54
2021/11/14 05:24:48;;;;;;;;;3.25;2.00;;;;;20.11;43.42;101281.84;5056782;28;45304;-55
2021/11/14 05:27:13;;;;;;;;;0.75;0.75;;;;;20.09;43.43;101276.63;5056771;28;45594;-55
2021/11/14 05:29:39;;;;;;;;;2.00;2.00;;;;;20.10;43.60;101282.75;5038099;28;47279;-53
2021/11/14 05:32:05;;;;;;;;;1.00;1.00;;;;;20.09;43.47;101274.00;5056378;28;45315;-54
2021/11/14 05:34:30;;;;;;;;;1.00;1.00;;;;;20.08;43.43;101273.16;5056366;28;45402;-53
2021/11/14 05:36:55;;;;;;;;;1.75;1.75;;;;;20.07;43.43;101268.81;5056520;28;45570;-54
2021/11/14 05:39:21;;;;;;;;;2.00;2.00;;;;;20.07;43.23;101266.19;5056414;28;46535;-55
2021/11/14 05:41:46;;;;;;;;;2.00;2.00;;;;;20.08;43.62;101277.53;5056161;28;45407;-54
2021/11/14 05:44:12;;;;;;;;;2.75;2.75;;;;;20.08;43.18;101278.41;5056292;28;45363;-54
2021/11/14 05:46:37;;;;;;;;;2.00;2.00;;;;;20.08;43.44;101274.91;5056422;28;45543;-53
2021/11/14 05:49:08;;;;;;;;;1.50;1.50;;;;;20.07;43.36;101283.72;5059591;28;45606;-51
2021/11/14 05:51:34;;;;;;;;;0.25;0.25;;;;;20.07;43.23;101281.97;5059457;28;45293;-51
2021/11/14 05:53:59;;;;;;;;;1.00;1.00;;;;;20.06;43.53;101289.94;5059871;28;45325;-52
2021/11/14 05:56:25;;;;;;;;;2.00;2.00;;;;;20.06;43.56;101290.78;5059828;28;45300;-52
2021/11/14 05:58:54;;;;;;;;;2.00;2.00;;;;;20.02;43.76;101283.94;5059953;28;46413;-51
2021/11/14 06:01:28;;;;;;;;;2.00;2.00;;;;;20.06;43.43;101296.03;5059796;28;45248;-52
2021/11/14 06:06:34;;;;;;;;;1.00;1.00;;;;;20.06;43.61;101290.78;5059570;28;45432;-54
2021/11/14 06:09:00;;;;;;;;;1.00;1.00;;;;;20.05;43.65;101293.50;5059193;28;45524;-53
2021/11/14 06:11:26;;;;;;;;;0.75;0.75;;;;;20.06;43.56;101296.03;5059314;28;45365;-52
2021/11/14 06:13:53;;;;;;;;;2.00;2.00;;;;;20.06;43.33;101295.22;5059811;28;45391;-48
2021/11/14 06:16:19;;;;;;;;;1.00;1.00;;;;;20.05;43.49;101294.34;5059664;28;45386;-50
2021/11/14 06:18:45;;;;;;;;;1.75;1.75;;;;;20.05;43.63;101299.59;5059130;28;48073;-50
2021/11/14 06:21:10;;;;;;;;;1.00;1.00;;;;;20.06;43.79;101296.03;5059262;28;45233;-49
2021/11/14 06:23:36;;;;;;;;;1.50;1.50;;;;;20.05;43.56;101299.59;5059423;28;45298;-54
2021/11/14 06:26:02;;;;;;;;;2.00;2.00;;;;;20.04;43.75;101303.16;5059535;28;45330;-55
2021/11/14 06:28:27;;;;;;;;;1.75;1.75;;;;;20.05;43.86;101310.13;5059014;28;46371;-55
2021/11/14 06:30:53;;;;;;;;;1.75;1.75;;;;;20.04;43.32;101308.41;5059372;28;45192;-52
2021/11/14 06:33:18;;;;;;;;;2.00;2.00;;;;;20.03;43.87;101314.59;5059173;28;45371;-55
2021/11/14 06:35:44;;;;;;;;;1.50;1.00;;;;;20.01;43.32;101313.81;5059476;28;45177;-55
2021/11/14 06:38:09;;;;;;;;;2.00;2.00;;;;;20.04;43.80;101318.94;5058857;28;45594;-55
2021/11/14 06:40:35;;;;;;;;;0.00;0.00;;;;;20.00;43.83;101306.00;5057640;28;45454;-55
2021/11/14 06:43:00;;;;;;;;;2.00;2.00;;;;;20.03;43.80;101316.38;5059071;28;45375;-54
2021/11/14 06:45:26;;;;;;;;;1.50;1.50;;;;;20.03;43.36;101324.28;5059072;28;45588;-54
2021/11/14 06:47:51;;;;;;;;;2.00;2.00;;;;;20.03;43.44;101321.66;5059022;28;46353;-53
2021/11/14 06:50:17;;;;;;;;;1.75;1.75;;;;;20.04;43.70;101326.00;5058767;28;45473;-54
2021/11/14 06:52:44;;;;;;;;;4.00;3.00;;;;;20.03;43.82;101325.13;5058936;28;45298;-55
2021/11/14 06:55:12;;;;;;;;;1.25;1.25;;;;;20.03;43.44;101325.13;5059021;28;45405;-52
2021/11/14 06:57:38;;;;;;;;;1.50;1.00;;;;;20.02;43.92;101326.03;5058511;28;46514;-53
2021/11/14 07:00:11;;;;;;;;;2.00;2.00;;;;;20.03;43.52;101332.19;5057594;28;45300;-55
2021/11/14 07:02:37;;;;;;;;;1.25;1.25;;;;;20.02;43.71;101335.72;5058434;28;45300;-52
2021/11/14 07:05:04;;;;;;;;;1.00;1.00;;;;;20.01;43.65;101340.13;5058705;28;45371;-54
2021/11/14 07:07:30;;;;;;;;;1.25;1.25;;;;;19.97;43.72;101342.97;5058601;28;45471;-54
2021/11/14 07:09:55;;;;;;;;;2.25;1.75;;;;;20.02;43.59;101354.16;5058718;28;45324;-52
2021/11/14 07:12:23;;;;;;;;;1.00;1.00;;;;;20.01;43.63;101361.16;5040452;28;45390;-55
2021/11/14 07:14:50;;;;;;;;;2.00;2.00;;;;;20.02;43.86;101354.16;5058606;28;45638;-54
2021/11/14 07:17:15;;;;;;;;;1.00;1.00;;;;;20.01;43.91;101353.28;5058167;28;45305;-55
2021/11/14 07:19:41;;;;;;;;;1.00;1.00;;;;;19.96;43.55;101344.75;5058274;28;45766;-52
2021/11/14 07:22:06;;;;;;;;;3.00;2.00;;;;;20.01;44.05;101358.53;5058577;28;45428;-54
2021/11/14 07:24:32;;;;;;;;;1.00;1.00;;;;;20.00;43.47;101356.84;5058496;28;45553;-55
2021/11/14 07:26:57;;;;;;;;;1.25;1.25;;;;;20.00;43.75;101359.50;5058140;28;45559;-55
2021/11/14 07:29:22;;;;;;;;;1.00;1.00;;;;;19.93;43.49;101353.66;5058674;28;45182;-49
2021/11/14 07:31:48;;;;;;;;;0.00;0.00;;;;;20.01;43.61;101371.69;5040322;28;45366;-54
2021/11/14 07:34:13;;;;;;;;;1.00;1.00;;;;;20.00;43.36;101364.75;5058640;28;45471;-49
2021/11/14 07:36:38;;;;;;;;;4.25;2.00;;;;;19.97;43.45;101364.00;5058132;28;45456;-49
2021/11/14 07:39:04;;;;;;;;;2.00;1.00;;;;;20.00;43.55;101375.28;5058218;28;45297;-51
2021/11/14 07:41:29;;;;;;;;;1.00;1.00;;;;;20.00;43.92;101379.66;5058433;28;45150;-54
2021/11/14 07:43:55;;;;;;;;;1.00;1.00;;;;;19.95;43.43;101376.41;5058691;28;45412;-51
2021/11/14 07:46:21;;;;;;;;;1.00;1.00;;;;;19.95;43.56;101371.97;5057925;28;46448;-52
2021/11/14 07:48:46;;;;;;;;;1.00;1.00;;;;;19.99;43.84;101389.34;5039845;28;45673;-51
2021/11/14 07:51:12;;;;;;;;;1.50;1.50;;;;;19.99;43.93;101381.47;5058157;28;45296;-48
2021/11/14 07:53:37;;;;;;;;;1.00;1.00;;;;;19.99;43.89;101397.25;5058087;28;45551;-50
2021/11/14 07:56:03;;;;;;;;;1.75;1.75;;;;;19.99;43.71;101397.25;5057699;28;46287;-50
2021/11/14 07:58:28;;;;;;;;;1.00;1.00;;;;;19.98;43.75;101395.53;5057737;28;45308;-50
2021/11/14 08:00:54;;;;;;;;;0.75;0.75;;;;;19.94;43.56;101393.94;5058144;28;45506;-51
2021/11/14 08:03:22;;;;;;;;;1.50;1.00;;;;;19.98;43.90;101403.41;5058130;28;45353;-50
2021/11/14 08:05:48;;;;;;;;;0.50;0.50;;;;;19.98;43.48;101403.41;5039250;28;47610;-50
2021/11/14 08:08:14;;;;;;;;;1.00;1.00;;;;;19.98;43.98;101398.16;5057748;28;45317;-50
2021/11/14 08:10:39;;;;;;;;;3.00;1.75;;;;;19.95;44.05;101398.28;5057385;28;45393;-50
2021/11/14 08:13:08;;;;;;;;;1.25;1.25;;;;;19.98;43.57;101407.81;5057850;28;45598;-49
2021/11/14 08:15:35;;;;;;;;;1.50;1.25;;;;;19.96;43.92;101405.25;5057521;28;46372;-52
2021/11/14 08:18:00;;;;;;;;;1.00;1.00;;;;;19.95;43.60;101407.97;5057503;28;45228;-54
2021/11/14 08:20:26;;;;;;;;;1.00;1.00;;;;;19.96;43.64;101405.25;5057942;28;45351;-53
2021/11/14 08:22:51;;;;;;;;;2.00;2.00;;;;;19.96;43.55;101400.00;5057844;28;45491;-50
2021/11/14 08:25:18;;;;;;;;;1.75;1.75;;;;;19.96;43.95;101399.13;5057199;28;45288;-52
2021/11/14 08:27:45;;;;;;;;;0.00;0.00;;;;;19.96;44.06;101402.63;5056046;28;45649;-50
2021/11/14 08:30:13;;;;;;;;;1.25;1.25;;;;;19.96;43.62;101405.25;5057248;28;45343;-48
2021/11/14 08:32:39;;;;;;;;;1.00;1.00;;;;;19.91;43.80;101407.22;5057563;28;45434;-54
2021/11/14 08:35:05;;;;;;;;;2.00;2.00;;;;;19.92;43.63;101406.31;5038990;28;48155;-54
2021/11/14 08:37:31;;;;;;;;;1.00;1.00;;;;;19.97;43.85;101411.38;5056960;28;45364;-52
2021/11/14 08:39:57;;;;;;;;;0.00;0.00;;;;;19.92;43.47;101401.03;5057499;28;45501;-51
2021/11/14 08:42:23;;;;;;;;;1.25;1.25;;;;;19.97;43.85;101412.25;5057383;28;45316;-49
2021/11/14 08:44:48;;;;;;;;;0.75;0.75;;;;;19.97;43.79;101404.34;5056870;28;46669;-51
2021/11/14 08:47:16;;;;;;;;;2.00;2.00;;;;;19.92;43.78;101398.41;5056997;28;45387;-49
2021/11/14 08:49:42;;;;;;;;;1.00;1.00;;;;;19.97;43.93;101406.09;5056969;28;45345;-47
2021/11/14 08:52:08;;;;;;;;;1.00;1.00;;;;;19.97;43.54;101406.09;5055874;28;45311;-47
2021/11/14 08:54:34;;;;;;;;;1.00;1.00;;;;;19.96;43.93;101418.41;5056623;28;46480;-50
2021/11/14 08:56:59;;;;;;;;;2.00;1.00;;;;;19.97;43.75;101414.00;5057067;28;45411;-49
2021/11/14 08:59:28;;;;;;;;;1.00;1.00;;;;;19.96;44.08;101420.19;5057035;28;45229;-52
2021/11/14 09:01:53;;;;;;;;;1.00;1.00;;;;;19.91;43.54;101408.09;5057106;28;45331;-50
2021/11/14 09:04:19;;;;;;;;;1.00;1.00;;;;;19.88;43.81;101400.31;5038613;28;48058;-52
2021/11/14 09:06:44;;;;;;;;;1.75;1.00;;;;;19.97;43.55;101403.47;5056577;28;45459;-55
2021/11/14 09:09:11;;;;;;;;;0.25;0.25;;;;;19.96;43.71;101405.25;5056716;28;45300;-51
2021/11/14 09:11:38;;;;;;;;;1.00;1.00;;;;;19.96;43.90;101407.88;5056934;28;45335;-54
2021/11/14 09:14:04;;;;;;;;;1.00;1.00;;;;;19.98;43.70;101418.34;5056405;28;45452;-52
2021/11/14 09:16:29;;;;;;;;;1.50;1.50;;;;;19.97;44.22;101409.59;5056693;28;45314;-56
2021/11/14 09:18:58;;;;;;;;;2.00;1.00;;;;;19.96;43.64;101410.53;5056789;28;45345;-52
2021/11/14 09:21:24;;;;;;;;;1.00;1.00;;;;;19.97;43.81;101428.03;5056193;28;45412;-53
2021/11/14 09:23:50;;;;;;;;;1.00;1.00;;;;;19.96;43.56;101418.41;5056027;28;46530;-53
2021/11/14 09:26:16;;;;;;;;;0.50;0.50;;;;;19.92;43.92;101425.59;5056338;28;45451;-54
2021/11/14 09:28:42;;;;;;;;;1.75;1.00;;;;;19.98;43.63;101424.47;5056423;28;45400;-54
2021/11/14 09:31:09;;;;;;;;;2.00;1.00;;;;;19.97;44.04;101428.03;5056748;28;45524;-54
2021/11/14 09:33:35;;;;;;;;;0.25;0.25;;;;;19.97;43.58;101430.66;5056257;28;46727;-54
2021/11/14 09:36:02;;;;;;;;;1.00;1.00;;;;;19.97;43.88;101435.03;5056620;28;45312;-53
2021/11/14 09:38:28;;;;;;;;;0.00;0.00;;;;;19.96;44.11;101436.84;5056515;28;45303;-53
2021/11/14 09:40:53;;;;;;;;;1.50;1.00;;;;;19.97;43.63;101427.16;5056632;28;45378;-53
2021/11/14 09:43:20;;;;;;;;;0.25;0.25;;;;;19.96;43.77;101426.31;5056146;28;45220;-54
2021/11/14 09:45:46;;;;;;;;;1.00;1.00;;;;;19.97;43.81;101428.03;5056135;28;45832;-52
2021/11/14 09:48:11;;;;;;;;;0.00;0.00;;;;;19.97;43.81;101428.03;5056366;28;45297;-54
2021/11/14 09:50:37;;;;;;;;;1.00;1.00;;;;;19.97;44.28;101430.66;5056343;28;45507;-54
2021/11/14 09:53:04;;;;;;;;;0.50;0.50;;;;;19.97;44.03;101435.91;5056440;28;46563;-49
2021/11/14 09:55:34;;;;;;;;;1.50;1.50;;;;;19.94;44.21;101428.16;5056443;28;45242;-55
2021/11/14 09:58:01;;;;;;;;;1.00;1.00;;;;;19.98;43.69;101434.13;5056380;28;45446;-52
2021/11/14 10:00:28;;;;;;;;;1.00;1.00;;;;;19.98;43.61;101440.25;5056302;28;45447;-48
2021/11/14 10:02:53;;;;;;;;;0.50;0.50;;;;;19.98;43.84;101434.13;5055904;28;47211;-53
2021/11/14 10:05:19;;;;;;;;;1.00;1.00;;;;;19.98;43.74;101440.25;5055571;28;45447;-54
2021/11/14 10:07:56;;;;;;;;;1.00;1.00;;;;;19.98;44.00;101439.38;5056212;28;45316;-54
2021/11/14 10:10:25;;;;;;;;;0.75;0.75;;;;;19.97;43.97;101433.28;5055027;28;45629;-53
2021/11/14 10:12:51;;;;;;;;;0.00;0.00;;;;;19.94;43.84;101438.66;5055833;28;48286;-56
2021/11/14 10:15:20;;;;;;;;;1.50;1.00;;;;;19.92;43.58;101429.97;5055796;28;45400;-54
2021/11/14 10:17:55;;;;;;;;;1.00;1.00;;;;;19.96;43.97;101434.19;5054667;28;45268;-55
2021/11/14 10:20:35;;;;;;;;;0.00;0.00;;;;;19.92;43.58;101432.63;5056139;28;45221;-54
2021/11/14 10:23:08;;;;;;;;;1.00;1.00;;;;;19.97;44.26;101435.91;5055984;28;46893;-52
2021/11/14 10:25:35;;;;;;;;;1.00;1.00;;;;;19.96;43.62;101431.56;5056031;28;45200;-53
2021/11/14 10:28:03;;;;;;;;;1.25;1.00;;;;;19.97;43.65;101440.31;5055923;28;45513;-53
2021/11/14 10:30:34;;;;;;;;;2.00;0.75;;;;;19.97;44.15;101435.91;5055801;28;45522;-54
2021/11/14 10:33:04;;;;;;;;;1.00;1.00;;;;;19.97;43.86;101437.69;5056200;28;46535;-52
2021/11/14 10:35:31;;;;;;;;;0.25;0.25;;;;;19.96;44.16;101444.72;5058675;28;45333;-54
2021/11/14 10:38:02;;;;;;;;;1.00;1.00;;;;;19.96;44.23;101430.69;5059112;28;45314;-54
2021/11/14 10:40:31;;;;;;;;;1.75;1.00;;;;;19.96;44.13;101435.97;5059166;28;45304;-54
2021/11/14 10:42:59;;;;;;;;;1.75;1.00;;;;;19.93;43.87;101429.06;5058748;28;45688;-54
2021/11/14 10:45:26;;;;;;;;;1.00;1.00;;;;;19.95;44.34;101429.84;5058843;28;45276;-55
2021/11/14 10:47:57;;;;;;;;;0.75;0.75;;;;;19.99;44.02;101438.47;5059054;28;45464;-52
2021/11/14 10:50:27;;;;;;;;;0.50;0.50;;;;;19.99;43.76;101431.44;5059213;28;45347;-54
2021/11/14 10:52:59;;;;;;;;;0.25;0.25;;;;;20.02;43.86;101441.81;5058733;28;45524;-55
2021/11/14 10:55:28;;;;;;;;;1.00;1.00;;;;;20.05;44.31;101438.22;5058648;28;45187;-55
2021/11/14 10:57:54;;;;;;;;;1.00;1.00;;;;;20.10;43.77;101432.75;5058640;28;45388;-55
2021/11/14 11:00:22;;;;;;;;;1.75;1.00;;;;;20.15;44.21;101443.91;5058789;28;45567;-55
2021/11/14 11:02:48;;;;;;;;;1.00;1.00;;;;;20.19;44.08;101438.44;5058569;28;45291;-53
2021/11/14 11:05:23;;;;;;;;;1.00;1.00;;;;;20.21;44.08;101447.13;5058450;28;45230;-54
2021/11/14 11:08:03;;;;;;;;;1.00;1.00;;;;;20.25;43.78;101434.69;5058652;28;45297;-54
2021/11/14 11:10:40;;;;;;;;;1.75;1.75;;;;;20.31;43.54;101438.81;5058605;28;45468;-54
2021/11/14 11:13:10;;;;;;;;;1.00;1.00;;;;;20.33;43.69;101445.75;5058814;28;45473;-54
2021/11/14 11:15:39;;;;;;;;;2.00;2.00;;;;;20.43;43.93;101447.97;5058565;28;45872;-54
2021/11/14 11:18:06;;;;;;;;;1.75;1.75;;;;;20.46;44.11;101439.91;5058741;28;45349;-54
2021/11/14 11:20:32;;;;;;;;;0.75;0.75;;;;;20.47;43.93;101431.94;5058586;28;45344;-54
2021/11/14 11:23:03;;;;;;;;;1.25;1.00;;;;;20.51;43.86;101432.66;5058108;28;46446;-55
2021/11/14 11:25:37;;;;;;;;;1.00;1.00;;;;;20.59;43.45;101446.31;5058252;28;45366;-52